sensor_id;sensor_type;location;lat;lon;timestamp;pressure;altitude;pressure_sealevel;temperature;humidity
25610;BME280;13479;49.044;8.716;2024-02-23T05:01:04;97126.72;;;7.14;55.87
25610;BME280;13479;49.044;8.716;2024-02-23T05:03:29;97139.91;;;7.14;55.09
25610;BME280;13479;49.044;8.716;2024-02-23T05:05:54;97140.66;;;6.98;55.92
25610;BME280;13479;49.044;8.716;2024-02-23T05:08:20;97120.78;;;6.85;56.11
25610;BME280;13479;49.044;8.716;2024-02-23T05:10:46;97095.53;;;6.83;56.28
25610;BME280;13479;49.044;8.716;2024-02-23T05:13:12;97088.63;;;6.55;56.69
25610;BME280;13479;49.044;8.716;2024-02-23T05:15:37;97038.44;;;6.65;56.71
25610;BME280;13479;49.044;8.716;2024-02-23T05:18:03;97033.19;;;6.73;56.78
25610;BME280;13479;49.044;8.716;2024-02-23T05:20:28;97006.34;;;6.43;57.29
25610;BME280;13479;49.044;8.716;2024-02-23T05:22:53;96962.63;;;6.32;57.67
25610;BME280;13479;49.044;8.716;2024-02-23T05:25:19;96950.31;;;6.41;57.63
25610;BME280;13479;49.044;8.716;2024-02-23T05:27:44;96930.25;;;6.48;57.85
25610;BME280;13479;49.044;8.716;2024-02-23T05:30:10;96918.19;;;6.38;58.36
25610;BME280;13479;49.044;8.716;2024-02-23T05:32:35;96895.94;;;6.40;57.76
25610;BME280;13479;49.044;8.716;2024-02-23T05:35:00;96917.03;;;6.40;57.95
25610;BME280;13479;49.044;8.716;2024-02-23T05:37:26;96918.19;;;6.38;57.79
25610;BME280;13479;49.044;8.716;2024-02-23T05:39:52;96917.53;;;6.44;57.61
25610;BME280;13479;49.044;8.716;2024-02-23T05:42:18;96942.72;;;6.38;57.59
25610;BME280;13479;49.044;8.716;2024-02-23T05:44:44;96927.25;;;6.35;58.15
25610;BME280;13479;49.044;8.716;2024-02-23T05:47:10;96924.88;;;6.24;57.91
25610;BME280;13479;49.044;8.716;2024-02-23T05:49:35;96928.84;;;6.28;57.68
25610;BME280;13479;49.044;8.716;2024-02-23T05:52:01;96921.69;;;6.20;58.26
25610;BME280;13479;49.044;8.716;2024-02-23T05:54:26;96923.56;;;6.28;57.80
25610;BME280;13479;49.044;8.716;2024-02-23T05:56:51;96960.44;;;6.28;57.54
25610;BME280;13479;49.044;8.716;2024-02-23T05:59:16;96987.53;;;6.12;57.46
25610;BME280;13479;49.044;8.716;2024-02-23T06:01:42;96984.53;;;6.07;57.42
25610;BME280;13479;49.044;8.716;2024-02-23T06:04:07;96984.59;;;5.97;58.08
25610;BME280;13479;49.044;8.716;2024-02-23T06:06:32;96993.63;;;5.94;57.51
25610;BME280;13479;49.044;8.716;2024-02-23T06:08:57;97012.59;;;5.98;57.14
25610;BME280;13479;49.044;8.716;2024-02-23T06:11:23;97036.44;;;6.14;57.23
25610;BME280;13479;49.044;8.716;2024-02-23T06:13:48;97038.19;;;5.87;57.72
25610;BME280;13479;49.044;8.716;2024-02-23T06:16:13;97039.31;;;5.85;57.54
25610;BME280;13479;49.044;8.716;2024-02-23T06:18:39;97042.69;;;5.77;58.08
25610;BME280;13479;49.044;8.716;2024-02-23T06:21:14;97025.09;;;5.78;57.77
25610;BME280;13479;49.044;8.716;2024-02-23T06:23:40;97016.59;;;5.66;57.83
25610;BME280;13479;49.044;8.716;2024-02-23T06:26:05;96999.94;;;5.83;57.96
25610;BME280;13479;49.044;8.716;2024-02-23T06:28:30;97043.06;;;5.82;56.88
25610;BME280;13479;49.044;8.716;2024-02-23T06:30:56;97056.22;;;5.82;57.37
25610;BME280;13479;49.044;8.716;2024-02-23T06:33:21;97072.47;;;5.96;56.53
25610;BME280;13479;49.044;8.716;2024-02-23T06:35:46;97110.25;;;5.86;56.36
25610;BME280;13479;49.044;8.716;2024-02-23T06:38:11;97113.09;;;5.75;57.45
25610;BME280;13479;49.044;8.716;2024-02-23T06:40:37;97104.22;;;5.76;57.18
25610;BME280;13479;49.044;8.716;2024-02-23T06:43:02;97103.47;;;5.66;57.04
25610;BME280;13479;49.044;8.716;2024-02-23T06:45:27;97129.41;;;6.25;55.73
25610;BME280;13479;49.044;8.716;2024-02-23T06:47:52;97155.22;;;5.75;56.86
25610;BME280;13479;49.044;8.716;2024-02-23T06:50:18;97126.34;;;5.83;57.03
25610;BME280;13479;49.044;8.716;2024-02-23T06:52:43;97102.81;;;5.82;57.13
25610;BME280;13479;49.044;8.716;2024-02-23T06:55:08;97107.66;;;6.05;56.68
25610;BME280;13479;49.044;8.716;2024-02-23T06:57:35;97143.47;;;6.15;55.92
25610;BME280;13479;49.044;8.716;2024-02-23T07:00:01;97224.72;;;6.38;55.09
25610;BME280;13479;49.044;8.716;2024-02-23T07:02:27;97257.94;;;6.31;55.09
25610;BME280;13479;49.044;8.716;2024-02-23T07:04:52;97274.44;;;6.33;54.55
25610;BME280;13479;49.044;8.716;2024-02-23T07:07:19;97249.78;;;6.24;55.37
25610;BME280;13479;49.044;8.716;2024-02-23T07:09:45;97256.19;;;6.22;55.27
25610;BME280;13479;49.044;8.716;2024-02-23T07:12:10;97220.72;;;6.16;55.58
25610;BME280;13479;49.044;8.716;2024-02-23T07:14:38;97211.91;;;6.07;56.04
25610;BME280;13479;49.044;8.716;2024-02-23T07:17:03;97221.00;;;6.13;55.50
25610;BME280;13479;49.044;8.716;2024-02-23T07:19:29;97200.53;;;6.07;56.06
25610;BME280;13479;49.044;8.716;2024-02-23T07:21:54;97181.50;;;6.31;55.31
25610;BME280;13479;49.044;8.716;2024-02-23T07:24:19;97222.19;;;6.46;55.02
25610;BME280;13479;49.044;8.716;2024-02-23T07:26:45;97256.81;;;6.52;54.81
25610;BME280;13479;49.044;8.716;2024-02-23T07:29:10;97268.28;;;6.78;54.31
25610;BME280;13479;49.044;8.716;2024-02-23T07:31:35;97302.00;;;6.93;54.03
25610;BME280;13479;49.044;8.716;2024-02-23T07:34:00;97298.84;;;7.07;53.71
25610;BME280;13479;49.044;8.716;2024-02-23T07:36:26;97303.53;;;7.14;53.12
25610;BME280;13479;49.044;8.716;2024-02-23T07:38:52;97305.84;;;7.17;53.27
25610;BME280;13479;49.044;8.716;2024-02-23T07:41:17;97275.78;;;7.09;54.22
25610;BME280;13479;49.044;8.716;2024-02-23T07:43:45;97234.84;;;7.05;54.66
25610;BME280;13479;49.044;8.716;2024-02-23T07:46:12;97209.25;;;6.98;54.72
25610;BME280;13479;49.044;8.716;2024-02-23T07:48:37;97177.44;;;6.99;55.04
25610;BME280;13479;49.044;8.716;2024-02-23T07:51:03;97145.94;;;6.98;55.60
25610;BME280;13479;49.044;8.716;2024-02-23T07:53:29;97088.16;;;7.72;55.81
25610;BME280;13479;49.044;8.716;2024-02-23T07:55:54;97101.03;;;9.07;53.78
25610;BME280;13479;49.044;8.716;2024-02-23T07:58:20;97282.53;;;10.31;48.43
25610;BME280;13479;49.044;8.716;2024-02-23T08:00:46;97292.97;;;11.34;46.28
25610;BME280;13479;49.044;8.716;2024-02-23T08:03:11;97293.97;;;12.67;43.83
25610;BME280;13479;49.044;8.716;2024-02-23T08:05:37;97305.19;;;13.71;41.32
25610;BME280;13479;49.044;8.716;2024-02-23T08:08:02;97330.84;;;14.49;38.79
25610;BME280;13479;49.044;8.716;2024-02-23T08:10:27;97344.59;;;14.95;36.95
25610;BME280;13479;49.044;8.716;2024-02-23T08:12:53;97330.25;;;15.50;37.23
25610;BME280;13479;49.044;8.716;2024-02-23T08:15:18;97348.38;;;15.74;35.83
25610;BME280;13479;49.044;8.716;2024-02-23T08:17:43;97346.13;;;15.44;35.34
25610;BME280;13479;49.044;8.716;2024-02-23T08:20:09;97333.97;;;15.28;36.13
25610;BME280;13479;49.044;8.716;2024-02-23T08:22:34;97346.09;;;15.71;35.33
25610;BME280;13479;49.044;8.716;2024-02-23T08:25:00;97344.81;;;16.34;34.53
25610;BME280;13479;49.044;8.716;2024-02-23T08:27:25;97348.09;;;17.27;33.52
25610;BME280;13479;49.044;8.716;2024-02-23T08:29:50;97332.50;;;17.94;32.72
25610;BME280;13479;49.044;8.716;2024-02-23T08:32:16;97332.88;;;19.21;31.01
25610;BME280;13479;49.044;8.716;2024-02-23T08:34:42;97323.84;;;19.69;29.61
25610;BME280;13479;49.044;8.716;2024-02-23T08:37:07;97323.50;;;20.25;28.90
25610;BME280;13479;49.044;8.716;2024-02-23T08:39:33;97318.50;;;20.17;28.23
25610;BME280;13479;49.044;8.716;2024-02-23T08:41:59;97332.59;;;20.48;28.10
25610;BME280;13479;49.044;8.716;2024-02-23T08:44:24;97331.19;;;21.44;27.85
25610;BME280;13479;49.044;8.716;2024-02-23T08:46:49;97319.66;;;22.39;25.84
25610;BME280;13479;49.044;8.716;2024-02-23T08:49:15;97324.03;;;23.39;24.87
25610;BME280;13479;49.044;8.716;2024-02-23T08:51:40;97315.69;;;23.84;24.11
25610;BME280;13479;49.044;8.716;2024-02-23T08:54:05;97322.13;;;24.05;23.83
25610;BME280;13479;49.044;8.716;2024-02-23T08:56:36;97311.22;;;24.53;23.01
25610;BME280;13479;49.044;8.716;2024-02-23T08:59:02;97306.03;;;25.15;22.75
25610;BME280;13479;49.044;8.716;2024-02-23T09:01:27;97313.09;;;25.78;22.00
25610;BME280;13479;49.044;8.716;2024-02-23T09:03:52;97304.06;;;26.29;21.31
25610;BME280;13479;49.044;8.716;2024-02-23T09:06:18;97304.94;;;26.14;20.88
25610;BME280;13479;49.044;8.716;2024-02-23T09:08:44;97291.88;;;26.16;20.97
25610;BME280;13479;49.044;8.716;2024-02-23T09:11:09;97296.19;;;26.07;20.96
25610;BME280;13479;49.044;8.716;2024-02-23T09:13:36;97299.19;;;26.05;20.89
25610;BME280;13479;49.044;8.716;2024-02-23T09:16:01;97286.44;;;25.96;20.47
25610;BME280;13479;49.044;8.716;2024-02-23T09:18:27;97302.47;;;26.02;20.76
25610;BME280;13479;49.044;8.716;2024-02-23T09:20:52;97287.03;;;25.82;20.39
25610;BME280;13479;49.044;8.716;2024-02-23T09:23:18;97286.47;;;25.13;20.91
25610;BME280;13479;49.044;8.716;2024-02-23T09:25:43;97290.63;;;23.99;21.87
25610;BME280;13479;49.044;8.716;2024-02-23T09:28:09;97301.56;;;22.84;22.82
25610;BME280;13479;49.044;8.716;2024-02-23T09:30:36;97298.06;;;21.49;24.02
25610;BME280;13479;49.044;8.716;2024-02-23T09:33:01;97304.19;;;20.28;25.44
25610;BME280;13479;49.044;8.716;2024-02-23T09:35:26;97293.78;;;19.72;26.12
25610;BME280;13479;49.044;8.716;2024-02-23T09:37:52;97285.75;;;19.18;27.04
25610;BME280;13479;49.044;8.716;2024-02-23T09:40:17;97273.22;;;18.81;27.50
25610;BME280;13479;49.044;8.716;2024-02-23T09:42:43;97282.44;;;18.25;28.44
25610;BME280;13479;49.044;8.716;2024-02-23T09:45:14;97272.47;;;17.44;29.34
25610;BME280;13479;49.044;8.716;2024-02-23T09:47:40;97274.75;;;17.15;29.86
25610;BME280;13479;49.044;8.716;2024-02-23T09:50:05;97267.50;;;18.10;29.51
25610;BME280;13479;49.044;8.716;2024-02-23T09:52:32;97246.84;;;19.56;27.98
25610;BME280;13479;49.044;8.716;2024-02-23T09:54:57;97225.97;;;20.52;26.47
25610;BME280;13479;49.044;8.716;2024-02-23T09:57:23;97236.06;;;21.37;25.29
25610;BME280;13479;49.044;8.716;2024-02-23T09:59:48;97236.63;;;21.73;25.26
25610;BME280;13479;49.044;8.716;2024-02-23T10:02:16;97239.03;;;21.91;24.53
25610;BME280;13479;49.044;8.716;2024-02-23T10:04:43;97257.09;;;22.08;24.03
25610;BME280;13479;49.044;8.716;2024-02-23T10:07:09;97260.41;;;21.93;24.39
25610;BME280;13479;49.044;8.716;2024-02-23T10:09:35;97259.50;;;22.04;24.42
25610;BME280;13479;49.044;8.716;2024-02-23T10:12:01;97256.56;;;22.50;24.00
25610;BME280;13479;49.044;8.716;2024-02-23T10:14:27;97270.28;;;23.21;23.63
25610;BME280;13479;49.044;8.716;2024-02-23T10:16:52;97270.06;;;23.65;22.56
25610;BME280;13479;49.044;8.716;2024-02-23T10:19:22;97279.13;;;23.16;22.51
25610;BME280;13479;49.044;8.716;2024-02-23T10:21:47;97285.16;;;22.96;23.32
25610;BME280;13479;49.044;8.716;2024-02-23T10:24:15;97290.72;;;22.17;23.81
25610;BME280;13479;49.044;8.716;2024-02-23T10:26:42;97301.88;;;22.04;23.96
25610;BME280;13479;49.044;8.716;2024-02-23T10:29:07;97288.66;;;21.51;24.50
25610;BME280;13479;49.044;8.716;2024-02-23T10:31:35;97288.97;;;21.38;25.26
25610;BME280;13479;49.044;8.716;2024-02-23T10:34:07;97280.88;;;21.38;25.05
25610;BME280;13479;49.044;8.716;2024-02-23T10:36:36;97268.72;;;21.69;24.74
25610;BME280;13479;49.044;8.716;2024-02-23T10:39:03;97279.06;;;21.95;24.34
25610;BME280;13479;49.044;8.716;2024-02-23T10:41:34;97265.91;;;22.20;23.91
25610;BME280;13479;49.044;8.716;2024-02-23T10:44:00;97272.69;;;22.23;24.08
25610;BME280;13479;49.044;8.716;2024-02-23T10:46:30;97269.75;;;22.47;24.23
25610;BME280;13479;49.044;8.716;2024-02-23T10:48:58;97267.47;;;22.83;23.52
25610;BME280;13479;49.044;8.716;2024-02-23T10:51:24;97289.13;;;22.61;23.77
25610;BME280;13479;49.044;8.716;2024-02-23T10:53:52;97287.31;;;23.21;23.15
25610;BME280;13479;49.044;8.716;2024-02-23T10:56:17;97290.84;;;23.22;22.95
25610;BME280;13479;49.044;8.716;2024-02-23T10:58:42;97280.78;;;22.90;23.44
25610;BME280;13479;49.044;8.716;2024-02-23T11:01:08;97290.72;;;21.95;23.94
25610;BME280;13479;49.044;8.716;2024-02-23T11:03:36;97276.94;;;21.11;24.77
25610;BME280;13479;49.044;8.716;2024-02-23T11:06:05;97277.44;;;20.39;25.95
25610;BME280;13479;49.044;8.716;2024-02-23T11:08:32;97255.75;;;19.57;26.33
25610;BME280;13479;49.044;8.716;2024-02-23T11:11:07;97268.31;;;18.97;27.33
25610;BME280;13479;49.044;8.716;2024-02-23T11:13:36;97260.78;;;18.38;27.83
25610;BME280;13479;49.044;8.716;2024-02-23T11:16:03;97268.03;;;17.75;28.86
25610;BME280;13479;49.044;8.716;2024-02-23T11:18:29;97256.75;;;17.22;29.57
25610;BME280;13479;49.044;8.716;2024-02-23T11:20:55;97232.09;;;16.75;30.37
25610;BME280;13479;49.044;8.716;2024-02-23T11:23:22;97210.97;;;16.21;30.51
25610;BME280;13479;49.044;8.716;2024-02-23T11:26:04;97218.53;;;15.85;31.87
25610;BME280;13479;49.044;8.716;2024-02-23T11:28:31;97206.34;;;15.83;32.28
25610;BME280;13479;49.044;8.716;2024-02-23T11:30:57;97191.81;;;15.58;32.46
25610;BME280;13479;49.044;8.716;2024-02-23T11:33:34;97188.59;;;15.36;32.77
25610;BME280;13479;49.044;8.716;2024-02-23T11:36:09;97185.69;;;15.31;33.08
25610;BME280;13479;49.044;8.716;2024-02-23T11:38:34;97183.25;;;14.96;34.11
25610;BME280;13479;49.044;8.716;2024-02-23T11:41:00;97203.38;;;14.92;34.08
25610;BME280;13479;49.044;8.716;2024-02-23T11:43:27;97200.66;;;14.65;34.43
25610;BME280;13479;49.044;8.716;2024-02-23T11:45:53;97191.41;;;14.41;35.23
25610;BME280;13479;49.044;8.716;2024-02-23T11:48:18;97190.50;;;14.27;35.46
25610;BME280;13479;49.044;8.716;2024-02-23T11:50:43;97191.53;;;14.26;36.01
25610;BME280;13479;49.044;8.716;2024-02-23T11:53:08;97185.03;;;13.86;36.30
25610;BME280;13479;49.044;8.716;2024-02-23T11:55:35;97180.03;;;13.70;36.68
25610;BME280;13479;49.044;8.716;2024-02-23T11:58:00;97152.50;;;13.56;37.20
25610;BME280;13479;49.044;8.716;2024-02-23T12:00:26;97154.94;;;13.57;37.36
25610;BME280;13479;49.044;8.716;2024-02-23T12:02:51;97150.63;;;13.50;37.14
25610;BME280;13479;49.044;8.716;2024-02-23T12:05:16;97155.81;;;13.65;36.88
25610;BME280;13479;49.044;8.716;2024-02-23T12:07:42;97151.34;;;13.72;37.88
25610;BME280;13479;49.044;8.716;2024-02-23T12:10:08;97153.53;;;13.62;37.61
25610;BME280;13479;49.044;8.716;2024-02-23T12:12:35;97140.56;;;13.45;37.50
25610;BME280;13479;49.044;8.716;2024-02-23T12:15:01;97136.84;;;13.46;38.19
25610;BME280;13479;49.044;8.716;2024-02-23T12:17:27;97135.69;;;13.55;38.08
25610;BME280;13479;49.044;8.716;2024-02-23T12:19:59;97142.63;;;13.50;37.12
25610;BME280;13479;49.044;8.716;2024-02-23T12:22:25;97119.63;;;13.42;37.24
25610;BME280;13479;49.044;8.716;2024-02-23T12:24:50;97126.19;;;13.39;37.03
25610;BME280;13479;49.044;8.716;2024-02-23T12:27:19;97120.38;;;13.36;37.28
25610;BME280;13479;49.044;8.716;2024-02-23T12:29:54;97107.59;;;13.24;37.50
25610;BME280;13479;49.044;8.716;2024-02-23T12:32:23;97118.13;;;13.33;37.38
25610;BME280;13479;49.044;8.716;2024-02-23T12:34:48;97100.66;;;13.30;37.12
25610;BME280;13479;49.044;8.716;2024-02-23T12:37:17;97104.63;;;13.06;37.30
25610;BME280;13479;49.044;8.716;2024-02-23T12:39:46;97098.28;;;13.07;37.59
25610;BME280;13479;49.044;8.716;2024-02-23T12:42:11;97104.44;;;12.79;37.54
25610;BME280;13479;49.044;8.716;2024-02-23T12:44:36;97115.50;;;12.76;37.44
25610;BME280;13479;49.044;8.716;2024-02-23T12:47:01;97103.06;;;12.61;37.68
25610;BME280;13479;49.044;8.716;2024-02-23T12:49:27;97108.41;;;12.61;38.21
25610;BME280;13479;49.044;8.716;2024-02-23T12:51:52;97093.78;;;12.79;38.34
25610;BME280;13479;49.044;8.716;2024-02-23T12:54:17;97102.88;;;12.91;37.69
25610;BME280;13479;49.044;8.716;2024-02-23T12:56:43;97111.63;;;13.13;37.42
25610;BME280;13479;49.044;8.716;2024-02-23T12:59:08;97102.25;;;12.89;38.07
25610;BME280;13479;49.044;8.716;2024-02-23T13:01:34;97102.81;;;12.85;38.55
25610;BME280;13479;49.044;8.716;2024-02-23T13:04:02;97101.59;;;12.80;37.88
25610;BME280;13479;49.044;8.716;2024-02-23T13:06:27;97105.53;;;12.91;38.40
25610;BME280;13479;49.044;8.716;2024-02-23T13:08:52;97096.78;;;12.97;38.43
25610;BME280;13479;49.044;8.716;2024-02-23T13:11:18;97101.75;;;13.07;37.57
25610;BME280;13479;49.044;8.716;2024-02-23T13:13:43;97084.50;;;12.96;38.22
25610;BME280;13479;49.044;8.716;2024-02-23T13:16:08;97103.03;;;12.83;37.89
25610;BME280;13479;49.044;8.716;2024-02-23T13:18:34;97108.31;;;12.76;37.69
25610;BME280;13479;49.044;8.716;2024-02-23T13:20:59;97106.66;;;12.75;37.33
25610;BME280;13479;49.044;8.716;2024-02-23T13:23:24;97113.47;;;12.56;38.04
25610;BME280;13479;49.044;8.716;2024-02-23T13:25:49;97098.91;;;12.52;38.60
25610;BME280;13479;49.044;8.716;2024-02-23T13:28:15;97099.28;;;12.49;38.40
25610;BME280;13479;49.044;8.716;2024-02-23T13:30:40;97089.22;;;12.44;38.99
25610;BME280;13479;49.044;8.716;2024-02-23T13:33:05;97085.88;;;12.35;39.35
25610;BME280;13479;49.044;8.716;2024-02-23T13:35:33;97083.84;;;12.38;39.19
25610;BME280;13479;49.044;8.716;2024-02-23T13:37:59;97087.78;;;12.42;39.55
25610;BME280;13479;49.044;8.716;2024-02-23T13:40:25;97072.56;;;12.35;39.44
25610;BME280;13479;49.044;8.716;2024-02-23T13:42:50;97075.72;;;12.46;39.54
25610;BME280;13479;49.044;8.716;2024-02-23T13:45:17;97081.34;;;12.58;39.26
25610;BME280;13479;49.044;8.716;2024-02-23T13:47:55;97076.72;;;12.66;39.33
25610;BME280;13479;49.044;8.716;2024-02-23T13:50:21;97059.84;;;12.88;38.73
25610;BME280;13479;49.044;8.716;2024-02-23T13:52:47;97072.47;;;12.79;38.12
25610;BME280;13479;49.044;8.716;2024-02-23T13:55:12;97079.97;;;12.69;37.63
25610;BME280;13479;49.044;8.716;2024-02-23T13:57:38;97095.94;;;12.97;37.32
25610;BME280;13479;49.044;8.716;2024-02-23T14:00:04;97087.09;;;12.61;38.76
25610;BME280;13479;49.044;8.716;2024-02-23T14:02:33;97053.13;;;12.63;39.95
25610;BME280;13479;49.044;8.716;2024-02-23T14:05:01;97042.50;;;12.98;37.73
25610;BME280;13479;49.044;8.716;2024-02-23T14:07:31;97062.38;;;13.03;38.22
25610;BME280;13479;49.044;8.716;2024-02-23T14:09:57;97045.56;;;12.95;38.16
25610;BME280;13479;49.044;8.716;2024-02-23T14:12:22;97072.41;;;13.01;37.75
25610;BME280;13479;49.044;8.716;2024-02-23T14:14:47;97074.84;;;13.31;37.16
25610;BME280;13479;49.044;8.716;2024-02-23T14:17:13;97079.47;;;13.15;36.77
25610;BME280;13479;49.044;8.716;2024-02-23T14:19:39;97078.44;;;13.16;37.32
25610;BME280;13479;49.044;8.716;2024-02-23T14:22:04;97070.97;;;12.98;38.46
25610;BME280;13479;49.044;8.716;2024-02-23T14:24:29;97077.47;;;12.89;37.90
25610;BME280;13479;49.044;8.716;2024-02-23T14:26:55;97062.81;;;13.00;39.49
25610;BME280;13479;49.044;8.716;2024-02-23T14:29:20;97035.94;;;12.66;40.82
25610;BME280;13479;49.044;8.716;2024-02-23T14:31:45;97052.03;;;12.51;41.82
25610;BME280;13479;49.044;8.716;2024-02-23T14:34:10;97035.84;;;12.24;42.58
25610;BME280;13479;49.044;8.716;2024-02-23T14:36:36;97042.59;;;11.98;43.44
25610;BME280;13479;49.044;8.716;2024-02-23T14:39:01;97027.03;;;11.80;43.90
25610;BME280;13479;49.044;8.716;2024-02-23T14:41:29;97026.69;;;11.68;44.58
25610;BME280;13479;49.044;8.716;2024-02-23T14:43:54;97028.09;;;11.64;44.98
25610;BME280;13479;49.044;8.716;2024-02-23T14:46:19;97005.59;;;11.45;44.81
25610;BME280;13479;49.044;8.716;2024-02-23T14:48:45;97011.84;;;11.37;45.41
25610;BME280;13479;49.044;8.716;2024-02-23T14:51:13;97010.69;;;11.25;46.56
25610;BME280;13479;49.044;8.716;2024-02-23T14:53:38;97008.66;;;11.27;46.43
25610;BME280;13479;49.044;8.716;2024-02-23T14:56:04;97008.88;;;11.25;46.81
25610;BME280;13479;49.044;8.716;2024-02-23T14:58:29;97023.97;;;11.25;44.52
25610;BME280;13479;49.044;8.716;2024-02-23T15:00:54;97018.41;;;11.20;43.50
25610;BME280;13479;49.044;8.716;2024-02-23T15:03:20;97026.59;;;11.40;42.82
25610;BME280;13479;49.044;8.716;2024-02-23T15:05:45;97039.53;;;11.65;42.17
25610;BME280;13479;49.044;8.716;2024-02-23T15:08:10;97059.03;;;12.09;40.83
25610;BME280;13479;49.044;8.716;2024-02-23T15:10:35;97055.47;;;12.23;41.52
25610;BME280;13479;49.044;8.716;2024-02-23T15:13:01;97067.78;;;12.52;39.96
25610;BME280;13479;49.044;8.716;2024-02-23T15:15:26;97085.03;;;12.85;38.61
25610;BME280;13479;49.044;8.716;2024-02-23T15:17:51;97091.56;;;12.82;38.87
25610;BME280;13479;49.044;8.716;2024-02-23T15:20:18;97101.22;;;12.90;37.56
25610;BME280;13479;49.044;8.716;2024-02-23T15:22:43;97106.75;;;12.60;37.74
25610;BME280;13479;49.044;8.716;2024-02-23T15:25:10;97118.44;;;12.38;37.73
25610;BME280;13479;49.044;8.716;2024-02-23T15:27:36;97075.59;;;12.11;42.54
25610;BME280;13479;49.044;8.716;2024-02-23T15:30:02;97065.34;;;11.86;43.92
25610;BME280;13479;49.044;8.716;2024-02-23T15:32:28;97051.38;;;11.62;44.56
25610;BME280;13479;49.044;8.716;2024-02-23T15:34:53;97033.19;;;11.44;45.45
25610;BME280;13479;49.044;8.716;2024-02-23T15:37:19;97017.09;;;11.31;46.65
25610;BME280;13479;49.044;8.716;2024-02-23T15:39:44;97009.69;;;11.26;46.66
25610;BME280;13479;49.044;8.716;2024-02-23T15:42:10;96989.56;;;11.17;46.45
25610;BME280;13479;49.044;8.716;2024-02-23T15:44:35;96983.31;;;11.09;46.32
25610;BME280;13479;49.044;8.716;2024-02-23T15:47:00;96972.06;;;10.92;46.76
25610;BME280;13479;49.044;8.716;2024-02-23T15:49:26;96976.03;;;10.81;47.36
25610;BME280;13479;49.044;8.716;2024-02-23T15:51:51;96972.19;;;10.69;47.66
25610;BME280;13479;49.044;8.716;2024-02-23T15:54:16;96963.41;;;10.54;47.84
25610;BME280;13479;49.044;8.716;2024-02-23T15:56:42;96967.44;;;10.49;48.08
25610;BME280;13479;49.044;8.716;2024-02-23T15:59:07;96959.94;;;10.38;49.12
25610;BME280;13479;49.044;8.716;2024-02-23T16:01:36;96953.66;;;10.31;48.76
25610;BME280;13479;49.044;8.716;2024-02-23T16:04:02;96948.00;;;10.19;49.48
25610;BME280;13479;49.044;8.716;2024-02-23T16:06:28;96948.53;;;10.14;49.66
25610;BME280;13479;49.044;8.716;2024-02-23T16:09:00;96940.59;;;10.14;49.06
25610;BME280;13479;49.044;8.716;2024-02-23T16:11:25;96945.53;;;10.17;49.27
25610;BME280;13479;49.044;8.716;2024-02-23T16:13:52;96935.00;;;10.09;49.62
25610;BME280;13479;49.044;8.716;2024-02-23T16:16:17;96933.72;;;10.05;49.86
25610;BME280;13479;49.044;8.716;2024-02-23T16:18:43;96932.41;;;10.01;49.71
25610;BME280;13479;49.044;8.716;2024-02-23T16:21:08;96923.16;;;9.97;50.25
25610;BME280;13479;49.044;8.716;2024-02-23T16:23:35;96926.47;;;9.99;50.19
25610;BME280;13479;49.044;8.716;2024-02-23T16:26:00;96925.91;;;9.88;50.62
25610;BME280;13479;49.044;8.716;2024-02-23T16:28:26;96913.31;;;9.91;50.77
25610;BME280;13479;49.044;8.716;2024-02-23T16:30:52;96907.34;;;9.88;51.00
25610;BME280;13479;49.044;8.716;2024-02-23T16:33:17;96913.84;;;9.86;51.13
25610;BME280;13479;49.044;8.716;2024-02-23T16:35:42;96913.00;;;9.85;51.09
25610;BME280;13479;49.044;8.716;2024-02-23T16:38:07;96908.44;;;9.79;51.22
25610;BME280;13479;49.044;8.716;2024-02-23T16:40:33;96904.88;;;9.72;51.51
25610;BME280;13479;49.044;8.716;2024-02-23T16:42:58;96897.16;;;9.62;52.20
25610;BME280;13479;49.044;8.716;2024-02-23T16:45:25;96899.25;;;9.67;51.95
25610;BME280;13479;49.044;8.716;2024-02-23T16:47:50;96889.09;;;9.55;52.45
25610;BME280;13479;49.044;8.716;2024-02-23T16:50:16;96893.75;;;9.53;52.27
25610;BME280;13479;49.044;8.716;2024-02-23T16:52:41;96889.53;;;9.44;52.59
25610;BME280;13479;49.044;8.716;2024-02-23T16:55:06;96882.66;;;9.35;53.25
25610;BME280;13479;49.044;8.716;2024-02-23T16:57:32;96890.25;;;9.38;53.11
25610;BME280;13479;49.044;8.716;2024-02-23T16:59:58;96886.59;;;9.39;53.47
25610;BME280;13479;49.044;8.716;2024-02-23T17:02:23;96897.88;;;9.33;53.17
25610;BME280;13479;49.044;8.716;2024-02-23T17:04:48;96892.31;;;9.27;53.28
25610;BME280;13479;49.044;8.716;2024-02-23T17:07:14;96889.75;;;9.11;53.77
25610;BME280;13479;49.044;8.716;2024-02-23T17:09:39;96892.97;;;8.98;54.16
25610;BME280;13479;49.044;8.716;2024-02-23T17:12:08;96890.41;;;8.81;54.74
25610;BME280;13479;49.044;8.716;2024-02-23T17:14:34;96899.34;;;8.80;54.73
25610;BME280;13479;49.044;8.716;2024-02-23T17:16:59;96891.81;;;8.69;55.07
25610;BME280;13479;49.044;8.716;2024-02-23T17:19:24;96903.88;;;8.63;55.38
25610;BME280;13479;49.044;8.716;2024-02-23T17:21:49;96903.09;;;8.46;56.00
25610;BME280;13479;49.044;8.716;2024-02-23T17:24:15;96906.97;;;8.35;56.78
25610;BME280;13479;49.044;8.716;2024-02-23T17:26:40;96897.75;;;8.23;56.71
25610;BME280;13479;49.044;8.716;2024-02-23T17:29:05;96898.06;;;8.20;57.56
25610;BME280;13479;49.044;8.716;2024-02-23T17:31:32;96902.69;;;8.18;57.59
25610;BME280;13479;49.044;8.716;2024-02-23T17:33:57;96895.47;;;8.03;57.99
25610;BME280;13479;49.044;8.716;2024-02-23T17:36:23;96889.03;;;7.89;58.62
25610;BME280;13479;49.044;8.716;2024-02-23T17:38:48;96887.75;;;7.77;58.89
25610;BME280;13479;49.044;8.716;2024-02-23T17:41:13;96895.34;;;7.72;59.44
25610;BME280;13479;49.044;8.716;2024-02-23T17:43:38;96890.56;;;7.67;59.33
25610;BME280;13479;49.044;8.716;2024-02-23T17:46:04;96900.97;;;7.69;59.24
25610;BME280;13479;49.044;8.716;2024-02-23T17:48:32;96903.78;;;7.67;59.35
25610;BME280;13479;49.044;8.716;2024-02-23T17:50:57;96899.81;;;7.55;59.78
25610;BME280;13479;49.044;8.716;2024-02-23T17:53:23;96903.44;;;7.62;59.52
25610;BME280;13479;49.044;8.716;2024-02-23T17:55:48;96901.47;;;7.56;59.81
25610;BME280;13479;49.044;8.716;2024-02-23T17:58:14;96915.66;;;7.63;59.44